sensor_id;sensor_type;location;lat;lon;timestamp;P1;durP1;ratioP1;P2;durP2;ratioP2
56399;SDS011;42298;53.638;9.876;2023-04-26T00:02:23;12.70;;;2.10;;
56399;SDS011;42298;53.638;9.876;2023-04-26T00:04:52;8.07;;;2.00;;
56399;SDS011;42298;53.638;9.876;2023-04-26T00:07:22;11.13;;;2.43;;
56399;SDS011;42298;53.638;9.876;2023-04-26T00:09:49;8.70;;;1.93;;
56399;SDS011;42298;53.638;9.876;2023-04-26T00:12:16;10.67;;;2.43;;
56399;SDS011;42298;53.638;9.876;2023-04-26T00:14:41;9.10;;;2.30;;
56399;SDS011;42298;53.638;9.876;2023-04-26T00:17:07;8.10;;;2.50;;
56399;SDS011;42298;53.638;9.876;2023-04-26T00:19:33;13.20;;;2.23;;
56399;SDS011;42298;53.638;9.876;2023-04-26T00:21:58;7.50;;;1.90;;
56399;SDS011;42298;53.638;9.876;2023-04-26T00:24:24;7.23;;;2.13;;
56399;SDS011;42298;53.638;9.876;2023-04-26T00:26:52;10.70;;;2.37;;
56399;SDS011;42298;53.638;9.876;2023-04-26T00:29:18;6.93;;;2.10;;
56399;SDS011;42298;53.638;9.876;2023-04-26T00:31:43;10.00;;;2.50;;
56399;SDS011;42298;53.638;9.876;2023-04-26T00:34:08;8.93;;;2.07;;
56399;SDS011;42298;53.638;9.876;2023-04-26T00:36:34;7.80;;;2.10;;
56399;SDS011;42298;53.638;9.876;2023-04-26T00:38:59;9.60;;;2.00;;
56399;SDS011;42298;53.638;9.876;2023-04-26T00:41:25;6.23;;;2.07;;
56399;SDS011;42298;53.638;9.876;2023-04-26T00:43:50;6.77;;;2.10;;
56399;SDS011;42298;53.638;9.876;2023-04-26T00:46:16;6.17;;;1.73;;
56399;SDS011;42298;53.638;9.876;2023-04-26T00:48:41;10.60;;;2.20;;
56399;SDS011;42298;53.638;9.876;2023-04-26T00:51:08;11.67;;;2.67;;
56399;SDS011;42298;53.638;9.876;2023-04-26T00:53:33;10.63;;;2.40;;
56399;SDS011;42298;53.638;9.876;2023-04-26T00:55:59;8.03;;;2.10;;
56399;SDS011;42298;53.638;9.876;2023-04-26T00:58:25;12.73;;;2.50;;
56399;SDS011;42298;53.638;9.876;2023-04-26T01:00:50;8.67;;;2.10;;
56399;SDS011;42298;53.638;9.876;2023-04-26T01:03:16;10.97;;;2.50;;
56399;SDS011;42298;53.638;9.876;2023-04-26T01:05:42;9.17;;;2.50;;
56399;SDS011;42298;53.638;9.876;2023-04-26T01:08:07;8.47;;;2.33;;
56399;SDS011;42298;53.638;9.876;2023-04-26T01:10:33;14.50;;;2.30;;
56399;SDS011;42298;53.638;9.876;2023-04-26T01:13:00;7.87;;;2.40;;
56399;SDS011;42298;53.638;9.876;2023-04-26T01:15:27;9.80;;;2.37;;
56399;SDS011;42298;53.638;9.876;2023-04-26T01:17:54;9.57;;;2.30;;
56399;SDS011;42298;53.638;9.876;2023-04-26T01:20:20;10.27;;;2.67;;
56399;SDS011;42298;53.638;9.876;2023-04-26T01:22:46;7.20;;;2.13;;
56399;SDS011;42298;53.638;9.876;2023-04-26T01:25:11;7.83;;;2.33;;
56399;SDS011;42298;53.638;9.876;2023-04-26T01:27:37;10.80;;;2.60;;
56399;SDS011;42298;53.638;9.876;2023-04-26T01:30:02;11.83;;;3.03;;
56399;SDS011;42298;53.638;9.876;2023-04-26T01:32:28;10.93;;;2.70;;
56399;SDS011;42298;53.638;9.876;2023-04-26T01:34:58;7.57;;;2.73;;
56399;SDS011;42298;53.638;9.876;2023-04-26T01:37:23;14.90;;;3.10;;
56399;SDS011;42298;53.638;9.876;2023-04-26T01:39:49;11.87;;;3.20;;
56399;SDS011;42298;53.638;9.876;2023-04-26T01:42:14;12.43;;;3.10;;
56399;SDS011;42298;53.638;9.876;2023-04-26T01:44:39;7.80;;;2.93;;
56399;SDS011;42298;53.638;9.876;2023-04-26T01:47:04;12.20;;;2.90;;
56399;SDS011;42298;53.638;9.876;2023-04-26T01:49:30;9.33;;;3.00;;
56399;SDS011;42298;53.638;9.876;2023-04-26T01:51:56;10.77;;;3.40;;
56399;SDS011;42298;53.638;9.876;2023-04-26T01:54:22;8.93;;;2.50;;
56399;SDS011;42298;53.638;9.876;2023-04-26T01:56:47;10.17;;;3.37;;
56399;SDS011;42298;53.638;9.876;2023-04-26T01:59:13;9.60;;;2.73;;
56399;SDS011;42298;53.638;9.876;2023-04-26T02:01:40;11.70;;;2.70;;
56399;SDS011;42298;53.638;9.876;2023-04-26T02:04:05;8.90;;;3.40;;
56399;SDS011;42298;53.638;9.876;2023-04-26T02:06:31;10.10;;;3.33;;
56399;SDS011;42298;53.638;9.876;2023-04-26T02:08:56;13.57;;;3.40;;
56399;SDS011;42298;53.638;9.876;2023-04-26T02:11:21;11.20;;;3.50;;
56399;SDS011;42298;53.638;9.876;2023-04-26T02:13:47;12.13;;;3.43;;
56399;SDS011;42298;53.638;9.876;2023-04-26T02:16:12;9.37;;;3.40;;
56399;SDS011;42298;53.638;9.876;2023-04-26T02:18:39;15.60;;;3.80;;
56399;SDS011;42298;53.638;9.876;2023-04-26T02:21:09;15.13;;;3.33;;
56399;SDS011;42298;53.638;9.876;2023-04-26T02:23:35;9.60;;;3.33;;
56399;SDS011;42298;53.638;9.876;2023-04-26T02:26:00;11.70;;;3.50;;
56399;SDS011;42298;53.638;9.876;2023-04-26T02:28:27;12.43;;;4.00;;
56399;SDS011;42298;53.638;9.876;2023-04-26T02:30:52;13.77;;;3.50;;
56399;SDS011;42298;53.638;9.876;2023-04-26T02:33:18;9.77;;;3.93;;
56399;SDS011;42298;53.638;9.876;2023-04-26T02:35:43;11.83;;;3.60;;
56399;SDS011;42298;53.638;9.876;2023-04-26T02:38:08;7.83;;;2.50;;
56399;SDS011;42298;53.638;9.876;2023-04-26T02:40:34;10.47;;;2.90;;
56399;SDS011;42298;53.638;9.876;2023-04-26T02:42:59;10.17;;;2.83;;
56399;SDS011;42298;53.638;9.876;2023-04-26T02:45:25;11.70;;;3.67;;
56399;SDS011;42298;53.638;9.876;2023-04-26T02:47:51;15.53;;;4.27;;
56399;SDS011;42298;53.638;9.876;2023-04-26T02:50:17;11.43;;;3.67;;
56399;SDS011;42298;53.638;9.876;2023-04-26T02:52:43;10.33;;;3.40;;
56399;SDS011;42298;53.638;9.876;2023-04-26T02:55:08;9.87;;;3.20;;
56399;SDS011;42298;53.638;9.876;2023-04-26T02:57:34;10.10;;;3.80;;
56399;SDS011;42298;53.638;9.876;2023-04-26T02:59:59;11.97;;;3.10;;
56399;SDS011;42298;53.638;9.876;2023-04-26T03:02:25;11.53;;;3.37;;
56399;SDS011;42298;53.638;9.876;2023-04-26T03:04:50;11.23;;;3.40;;
56399;SDS011;42298;53.638;9.876;2023-04-26T03:07:16;13.37;;;3.60;;
56399;SDS011;42298;53.638;9.876;2023-04-26T03:09:41;11.40;;;3.93;;
56399;SDS011;42298;53.638;9.876;2023-04-26T03:12:07;11.47;;;4.27;;
56399;SDS011;42298;53.638;9.876;2023-04-26T03:14:33;11.53;;;4.13;;
56399;SDS011;42298;53.638;9.876;2023-04-26T03:16:59;13.30;;;4.20;;
56399;SDS011;42298;53.638;9.876;2023-04-26T03:19:25;12.50;;;4.30;;
56399;SDS011;42298;53.638;9.876;2023-04-26T03:21:51;12.20;;;4.83;;
56399;SDS011;42298;53.638;9.876;2023-04-26T03:24:16;11.73;;;3.93;;
56399;SDS011;42298;53.638;9.876;2023-04-26T03:26:42;10.23;;;4.00;;
56399;SDS011;42298;53.638;9.876;2023-04-26T03:29:07;12.10;;;4.10;;
56399;SDS011;42298;53.638;9.876;2023-04-26T03:31:32;12.80;;;3.70;;
56399;SDS011;42298;53.638;9.876;2023-04-26T03:33:58;12.63;;;4.00;;
56399;SDS011;42298;53.638;9.876;2023-04-26T03:36:23;9.67;;;3.90;;
56399;SDS011;42298;53.638;9.876;2023-04-26T03:38:48;10.87;;;3.77;;
56399;SDS011;42298;53.638;9.876;2023-04-26T03:41:14;10.43;;;3.37;;
56399;SDS011;42298;53.638;9.876;2023-04-26T03:43:39;11.07;;;3.80;;
56399;SDS011;42298;53.638;9.876;2023-04-26T03:46:04;11.00;;;3.47;;
56399;SDS011;42298;53.638;9.876;2023-04-26T03:48:30;9.67;;;3.23;;
56399;SDS011;42298;53.638;9.876;2023-04-26T03:50:55;10.57;;;3.23;;
56399;SDS011;42298;53.638;9.876;2023-04-26T03:53:21;11.53;;;3.50;;
56399;SDS011;42298;53.638;9.876;2023-04-26T03:55:46;7.50;;;3.10;;
56399;SDS011;42298;53.638;9.876;2023-04-26T03:58:12;10.07;;;2.93;;
56399;SDS011;42298;53.638;9.876;2023-04-26T04:00:38;10.10;;;3.17;;
56399;SDS011;42298;53.638;9.876;2023-04-26T04:03:05;14.23;;;3.67;;
56399;SDS011;42298;53.638;9.876;2023-04-26T04:05:31;11.10;;;3.17;;
56399;SDS011;42298;53.638;9.876;2023-04-26T04:07:56;12.70;;;3.10;;
56399;SDS011;42298;53.638;9.876;2023-04-26T04:10:22;10.07;;;3.13;;
56399;SDS011;42298;53.638;9.876;2023-04-26T04:12:47;8.40;;;2.93;;
56399;SDS011;42298;53.638;9.876;2023-04-26T04:15:15;11.00;;;3.10;;
56399;SDS011;42298;53.638;9.876;2023-04-26T04:17:41;8.63;;;3.17;;
56399;SDS011;42298;53.638;9.876;2023-04-26T04:20:06;12.10;;;3.60;;
56399;SDS011;42298;53.638;9.876;2023-04-26T04:22:32;11.83;;;3.40;;
56399;SDS011;42298;53.638;9.876;2023-04-26T04:24:57;10.47;;;3.30;;
56399;SDS011;42298;53.638;9.876;2023-04-26T04:27:24;9.57;;;2.83;;
56399;SDS011;42298;53.638;9.876;2023-04-26T04:29:50;7.80;;;3.10;;
56399;SDS011;42298;53.638;9.876;2023-04-26T04:32:15;7.87;;;3.17;;
56399;SDS011;42298;53.638;9.876;2023-04-26T04:34:41;9.27;;;3.57;;
56399;SDS011;42298;53.638;9.876;2023-04-26T04:37:07;10.33;;;3.50;;
56399;SDS011;42298;53.638;9.876;2023-04-26T04:39:32;9.73;;;3.50;;
56399;SDS011;42298;53.638;9.876;2023-04-26T04:41:58;11.47;;;3.87;;
56399;SDS011;42298;53.638;9.876;2023-04-26T04:44:24;9.47;;;3.50;;
56399;SDS011;42298;53.638;9.876;2023-04-26T04:46:51;12.17;;;3.77;;
56399;SDS011;42298;53.638;9.876;2023-04-26T04:49:16;9.20;;;3.63;;
56399;SDS011;42298;53.638;9.876;2023-04-26T04:51:44;15.10;;;4.00;;
56399;SDS011;42298;53.638;9.876;2023-04-26T04:54:10;11.80;;;3.90;;
56399;SDS011;42298;53.638;9.876;2023-04-26T04:56:35;9.90;;;3.23;;
56399;SDS011;42298;53.638;9.876;2023-04-26T04:59:01;11.37;;;3.77;;
56399;SDS011;42298;53.638;9.876;2023-04-26T05:01:26;10.40;;;3.57;;
56399;SDS011;42298;53.638;9.876;2023-04-26T05:03:51;9.00;;;3.60;;
56399;SDS011;42298;53.638;9.876;2023-04-26T05:06:17;10.47;;;3.80;;
56399;SDS011;42298;53.638;9.876;2023-04-26T05:08:42;14.20;;;4.17;;
56399;SDS011;42298;53.638;9.876;2023-04-26T05:11:07;11.47;;;3.87;;
56399;SDS011;42298;53.638;9.876;2023-04-26T05:13:33;9.97;;;3.97;;
56399;SDS011;42298;53.638;9.876;2023-04-26T05:15:58;13.37;;;3.70;;
56399;SDS011;42298;53.638;9.876;2023-04-26T05:18:24;9.90;;;3.60;;
56399;SDS011;42298;53.638;9.876;2023-04-26T05:20:50;11.37;;;4.57;;
56399;SDS011;42298;53.638;9.876;2023-04-26T05:23:15;10.10;;;3.90;;
56399;SDS011;42298;53.638;9.876;2023-04-26T05:25:41;10.13;;;3.67;;
56399;SDS011;42298;53.638;9.876;2023-04-26T05:28:06;12.93;;;3.60;;
56399;SDS011;42298;53.638;9.876;2023-04-26T05:30:36;10.43;;;4.00;;
56399;SDS011;42298;53.638;9.876;2023-04-26T05:33:02;10.10;;;4.00;;
56399;SDS011;42298;53.638;9.876;2023-04-26T05:35:27;11.47;;;4.20;;
56399;SDS011;42298;53.638;9.876;2023-04-26T05:37:52;11.30;;;3.97;;
56399;SDS011;42298;53.638;9.876;2023-04-26T05:40:18;12.80;;;3.80;;
56399;SDS011;42298;53.638;9.876;2023-04-26T05:42:43;11.57;;;3.50;;
56399;SDS011;42298;53.638;9.876;2023-04-26T05:45:08;10.27;;;3.40;;
56399;SDS011;42298;53.638;9.876;2023-04-26T05:47:34;11.77;;;3.63;;
56399;SDS011;42298;53.638;9.876;2023-04-26T05:50:01;7.77;;;3.37;;
56399;SDS011;42298;53.638;9.876;2023-04-26T05:52:27;11.33;;;3.43;;
56399;SDS011;42298;53.638;9.876;2023-04-26T05:54:52;11.07;;;3.80;;
56399;SDS011;42298;53.638;9.876;2023-04-26T05:57:17;13.70;;;4.10;;
56399;SDS011;42298;53.638;9.876;2023-04-26T05:59:43;12.73;;;3.60;;
56399;SDS011;42298;53.638;9.876;2023-04-26T06:02:08;9.70;;;3.40;;
56399;SDS011;42298;53.638;9.876;2023-04-26T06:04:34;9.63;;;3.83;;
56399;SDS011;42298;53.638;9.876;2023-04-26T06:06:59;13.33;;;4.20;;
56399;SDS011;42298;53.638;9.876;2023-04-26T06:09:25;15.03;;;4.13;;
56399;SDS011;42298;53.638;9.876;2023-04-26T06:11:51;10.53;;;3.30;;
56399;SDS011;42298;53.638;9.876;2023-04-26T06:14:16;13.00;;;3.53;;
56399;SDS011;42298;53.638;9.876;2023-04-26T06:16:41;8.63;;;3.43;;
56399;SDS011;42298;53.638;9.876;2023-04-26T06:19:07;12.77;;;3.57;;
56399;SDS011;42298;53.638;9.876;2023-04-26T06:21:32;10.97;;;3.50;;
56399;SDS011;42298;53.638;9.876;2023-04-26T06:23:57;10.90;;;3.50;;
56399;SDS011;42298;53.638;9.876;2023-04-26T06:26:23;8.87;;;3.57;;
56399;SDS011;42298;53.638;9.876;2023-04-26T06:28:48;13.93;;;3.50;;
56399;SDS011;42298;53.638;9.876;2023-04-26T06:31:13;9.53;;;3.33;;
56399;SDS011;42298;53.638;9.876;2023-04-26T06:33:43;10.27;;;3.50;;
56399;SDS011;42298;53.638;9.876;2023-04-26T06:36:14;11.20;;;3.70;;
56399;SDS011;42298;53.638;9.876;2023-04-26T06:38:40;9.83;;;3.27;;
56399;SDS011;42298;53.638;9.876;2023-04-26T06:41:05;8.65;;;2.95;;
56399;SDS011;42298;53.638;9.876;2023-04-26T06:43:31;10.05;;;3.45;;
56399;SDS011;42298;53.638;9.876;2023-04-26T06:45:59;8.75;;;3.03;;
56399;SDS011;42298;53.638;9.876;2023-04-26T06:48:25;10.63;;;3.70;;
56399;SDS011;42298;53.638;9.876;2023-04-26T06:50:51;10.10;;;3.45;;
56399;SDS011;42298;53.638;9.876;2023-04-26T06:53:16;10.88;;;3.53;;
56399;SDS011;42298;53.638;9.876;2023-04-26T06:55:43;11.15;;;3.20;;
56399;SDS011;42298;53.638;9.876;2023-04-26T06:58:08;10.35;;;3.30;;
56399;SDS011;42298;53.638;9.876;2023-04-26T07:00:34;11.80;;;3.60;;
56399;SDS011;42298;53.638;9.876;2023-04-26T07:02:59;10.32;;;3.50;;
56399;SDS011;42298;53.638;9.876;2023-04-26T07:05:25;8.35;;;3.22;;
56399;SDS011;42298;53.638;9.876;2023-04-26T07:07:50;8.07;;;3.08;;
56399;SDS011;42298;53.638;9.876;2023-04-26T07:10:16;13.23;;;3.60;;
56399;SDS011;42298;53.638;9.876;2023-04-26T07:12:41;11.60;;;3.40;;
56399;SDS011;42298;53.638;9.876;2023-04-26T07:15:10;10.40;;;3.03;;
56399;SDS011;42298;53.638;9.876;2023-04-26T07:17:35;9.32;;;3.25;;
56399;SDS011;42298;53.638;9.876;2023-04-26T07:20:01;12.10;;;3.72;;
56399;SDS011;42298;53.638;9.876;2023-04-26T07:22:26;5.60;;;2.60;;
56399;SDS011;42298;53.638;9.876;2023-04-26T07:24:52;10.82;;;3.53;;
56399;SDS011;42298;53.638;9.876;2023-04-26T07:27:17;8.73;;;2.67;;
56399;SDS011;42298;53.638;9.876;2023-04-26T07:29:52;7.25;;;2.80;;
56399;SDS011;42298;53.638;9.876;2023-04-26T07:32:19;10.13;;;3.17;;
56399;SDS011;42298;53.638;9.876;2023-04-26T07:34:47;10.63;;;3.10;;
56399;SDS011;42298;53.638;9.876;2023-04-26T07:37:12;6.60;;;2.70;;
56399;SDS011;42298;53.638;9.876;2023-04-26T07:39:37;9.45;;;2.95;;
56399;SDS011;42298;53.638;9.876;2023-04-26T07:42:03;8.57;;;2.55;;
56399;SDS011;42298;53.638;9.876;2023-04-26T07:44:28;7.88;;;3.20;;
56399;SDS011;42298;53.638;9.876;2023-04-26T07:46:53;7.22;;;2.25;;
56399;SDS011;42298;53.638;9.876;2023-04-26T07:49:19;13.68;;;2.42;;
56399;SDS011;42298;53.638;9.876;2023-04-26T07:51:44;9.10;;;2.20;;
56399;SDS011;42298;53.638;9.876;2023-04-26T07:54:11;6.57;;;2.30;;
56399;SDS011;42298;53.638;9.876;2023-04-26T07:56:36;7.00;;;2.17;;
56399;SDS011;42298;53.638;9.876;2023-04-26T07:59:02;10.30;;;2.70;;
56399;SDS011;42298;53.638;9.876;2023-04-26T08:01:28;5.87;;;2.07;;
56399;SDS011;42298;53.638;9.876;2023-04-26T08:03:54;7.37;;;2.53;;
56399;SDS011;42298;53.638;9.876;2023-04-26T08:06:19;10.10;;;3.10;;
56399;SDS011;42298;53.638;9.876;2023-04-26T08:08:45;7.03;;;2.37;;
56399;SDS011;42298;53.638;9.876;2023-04-26T08:11:14;9.07;;;2.60;;
56399;SDS011;42298;53.638;9.876;2023-04-26T08:13:40;5.43;;;2.13;;
56399;SDS011;42298;53.638;9.876;2023-04-26T08:16:07;9.93;;;2.33;;
56399;SDS011;42298;53.638;9.876;2023-04-26T08:18:34;7.93;;;2.70;;
56399;SDS011;42298;53.638;9.876;2023-04-26T08:20:59;6.90;;;2.40;;
56399;SDS011;42298;53.638;9.876;2023-04-26T08:23:25;8.57;;;2.70;;
56399;SDS011;42298;53.638;9.876;2023-04-26T08:25:50;9.00;;;2.83;;
56399;SDS011;42298;53.638;9.876;2023-04-26T08:28:16;9.67;;;2.80;;
56399;SDS011;42298;53.638;9.876;2023-04-26T08:30:41;9.47;;;2.70;;
56399;SDS011;42298;53.638;9.876;2023-04-26T08:33:08;7.83;;;2.80;;
56399;SDS011;42298;53.638;9.876;2023-04-26T08:35:33;11.23;;;3.03;;
56399;SDS011;42298;53.638;9.876;2023-04-26T08:37:59;11.43;;;2.72;;
56399;SDS011;42298;53.638;9.876;2023-04-26T08:40:25;10.60;;;2.63;;
56399;SDS011;42298;53.638;9.876;2023-04-26T08:42:50;10.25;;;2.80;;
56399;SDS011;42298;53.638;9.876;2023-04-26T08:45:17;7.10;;;2.50;;
56399;SDS011;42298;53.638;9.876;2023-04-26T08:47:43;8.00;;;2.50;;
56399;SDS011;42298;53.638;9.876;2023-04-26T08:50:17;9.13;;;2.67;;
56399;SDS011;42298;53.638;9.876;2023-04-26T08:52:50;8.35;;;2.70;;
56399;SDS011;42298;53.638;9.876;2023-04-26T08:55:16;6.50;;;2.08;;
56399;SDS011;42298;53.638;9.876;2023-04-26T08:57:47;7.60;;;2.22;;
56399;SDS011;42298;53.638;9.876;2023-04-26T09:00:14;9.55;;;2.50;;
56399;SDS011;42298;53.638;9.876;2023-04-26T09:02:41;5.18;;;2.63;;
56399;SDS011;42298;53.638;9.876;2023-04-26T09:05:10;12.00;;;2.85;;
56399;SDS011;42298;53.638;9.876;2023-04-26T09:07:45;9.13;;;2.25;;
56399;SDS011;42298;53.638;9.876;2023-04-26T09:10:12;6.63;;;1.92;;
56399;SDS011;42298;53.638;9.876;2023-04-26T09:12:41;6.22;;;1.63;;
56399;SDS011;42298;53.638;9.876;2023-04-26T09:15:07;6.70;;;1.70;;
56399;SDS011;42298;53.638;9.876;2023-04-26T09:17:34;7.35;;;1.73;;
56399;SDS011;42298;53.638;9.876;2023-04-26T09:22:53;7.78;;;2.17;;
56399;SDS011;42298;53.638;9.876;2023-04-26T09:25:28;7.68;;;1.70;;
56399;SDS011;42298;53.638;9.876;2023-04-26T09:27:55;5.43;;;1.95;;
56399;SDS011;42298;53.638;9.876;2023-04-26T09:30:21;5.55;;;1.67;;
56399;SDS011;42298;53.638;9.876;2023-04-26T09:32:56;5.60;;;1.65;;
56399;SDS011;42298;53.638;9.876;2023-04-26T09:35:34;5.20;;;1.45;;
56399;SDS011;42298;53.638;9.876;2023-04-26T09:38:03;4.60;;;1.67;;
56399;SDS011;42298;53.638;9.876;2023-04-26T09:40:42;5.35;;;1.67;;
56399;SDS011;42298;53.638;9.876;2023-04-26T09:43:19;6.82;;;1.80;;
56399;SDS011;42298;53.638;9.876;2023-04-26T09:45:46;5.40;;;1.90;;
56399;SDS011;42298;53.638;9.876;2023-04-26T09:48:24;7.82;;;1.63;;
56399;SDS011;42298;53.638;9.876;2023-04-26T09:50:56;5.38;;;1.80;;
56399;SDS011;42298;53.638;9.876;2023-04-26T09:53:26;5.50;;;2.10;;
56399;SDS011;42298;53.638;9.876;2023-04-26T09:56:07;5.05;;;1.70;;
56399;SDS011;42298;53.638;9.876;2023-04-26T09:58:54;4.95;;;1.75;;
56399;SDS011;42298;53.638;9.876;2023-04-26T10:01:23;5.28;;;1.88;;
56399;SDS011;42298;53.638;9.876;2023-04-26T10:03:49;5.80;;;1.67;;
56399;SDS011;42298;53.638;9.876;2023-04-26T10:06:15;5.00;;;1.52;;
56399;SDS011;42298;53.638;9.876;2023-04-26T10:08:41;4.18;;;1.58;;
56399;SDS011;42298;53.638;9.876;2023-04-26T10:11:08;4.38;;;1.55;;
56399;SDS011;42298;53.638;9.876;2023-04-26T10:13:37;3.47;;;1.50;;
56399;SDS011;42298;53.638;9.876;2023-04-26T10:16:04;4.82;;;1.50;;
56399;SDS011;42298;53.638;9.876;2023-04-26T10:18:31;5.43;;;2.10;;
56399;SDS011;42298;53.638;9.876;2023-04-26T10:23:42;8.55;;;1.88;;
56399;SDS011;42298;53.638;9.876;2023-04-26T10:26:45;8.90;;;2.10;;
56399;SDS011;42298;53.638;9.876;2023-04-26T10:29:20;6.63;;;1.90;;
56399;SDS011;42298;53.638;9.876;2023-04-26T10:34:28;4.45;;;1.83;;
56399;SDS011;42298;53.638;9.876;2023-04-26T10:37:09;7.85;;;1.98;;
56399;SDS011;42298;53.638;9.876;2023-04-26T10:39:44;6.15;;;1.95;;
56399;SDS011;42298;53.638;9.876;2023-04-26T10:42:17;6.75;;;1.90;;
56399;SDS011;42298;53.638;9.876;2023-04-26T10:44:56;5.93;;;1.60;;
56399;SDS011;42298;53.638;9.876;2023-04-26T10:47:31;5.68;;;2.00;;
56399;SDS011;42298;53.638;9.876;2023-04-26T10:50:09;7.88;;;1.55;;
56399;SDS011;42298;53.638;9.876;2023-04-26T10:52:36;3.90;;;1.40;;
56399;SDS011;42298;53.638;9.876;2023-04-26T10:55:03;4.20;;;1.80;;
56399;SDS011;42298;53.638;9.876;2023-04-26T10:57:48;6.53;;;2.05;;
56399;SDS011;42298;53.638;9.876;2023-04-26T11:00:17;11.52;;;2.55;;
56399;SDS011;42298;53.638;9.876;2023-04-26T11:05:35;6.13;;;1.80;;
56399;SDS011;42298;53.638;9.876;2023-04-26T11:08:19;5.05;;;1.67;;
56399;SDS011;42298;53.638;9.876;2023-04-26T11:10:51;10.07;;;2.30;;
56399;SDS011;42298;53.638;9.876;2023-04-26T11:13:21;6.13;;;1.70;;
56399;SDS011;42298;53.638;9.876;2023-04-26T11:15:51;4.57;;;1.85;;
56399;SDS011;42298;53.638;9.876;2023-04-26T11:18:20;6.18;;;1.77;;
56399;SDS011;42298;53.638;9.876;2023-04-26T11:20:46;7.97;;;1.90;;
56399;SDS011;42298;53.638;9.876;2023-04-26T11:23:12;8.50;;;1.67;;
56399;SDS011;42298;53.638;9.876;2023-04-26T11:25:38;6.00;;;1.85;;
56399;SDS011;42298;53.638;9.876;2023-04-26T11:28:04;5.93;;;1.85;;
56399;SDS011;42298;53.638;9.876;2023-04-26T11:30:30;7.72;;;1.90;;
56399;SDS011;42298;53.638;9.876;2023-04-26T11:33:00;6.68;;;1.50;;
56399;SDS011;42298;53.638;9.876;2023-04-26T11:35:26;3.50;;;1.50;;
56399;SDS011;42298;53.638;9.876;2023-04-26T11:37:53;6.10;;;1.63;;
56399;SDS011;42298;53.638;9.876;2023-04-26T11:40:22;9.10;;;1.88;;
56399;SDS011;42298;53.638;9.876;2023-04-26T11:42:47;6.15;;;1.70;;
56399;SDS011;42298;53.638;9.876;2023-04-26T11:45:14;5.00;;;1.52;;
56399;SDS011;42298;53.638;9.876;2023-04-26T11:47:41;5.20;;;1.90;;
56399;SDS011;42298;53.638;9.876;2023-04-26T11:50:09;8.30;;;1.83;;
56399;SDS011;42298;53.638;9.876;2023-04-26T11:52:34;5.15;;;1.55;;
56399;SDS011;42298;53.638;9.876;2023-04-26T11:55:04;6.75;;;1.92;;
56399;SDS011;42298;53.638;9.876;2023-04-26T11:57:31;8.02;;;1.95;;
56399;SDS011;42298;53.638;9.876;2023-04-26T12:00:09;7.70;;;1.92;;
56399;SDS011;42298;53.638;9.876;2023-04-26T12:02:45;5.75;;;1.75;;
56399;SDS011;42298;53.638;9.876;2023-04-26T12:05:19;6.47;;;1.90;;
56399;SDS011;42298;53.638;9.876;2023-04-26T12:07:57;6.45;;;1.83;;
56399;SDS011;42298;53.638;9.876;2023-04-26T12:10:25;5.47;;;1.40;;
56399;SDS011;42298;53.638;9.876;2023-04-26T12:12:53;4.13;;;1.42;;
56399;SDS011;42298;53.638;9.876;2023-04-26T12:15:27;6.97;;;1.50;;
56399;SDS011;42298;53.638;9.876;2023-04-26T12:18:15;6.53;;;1.63;;
56399;SDS011;42298;53.638;9.876;2023-04-26T12:20:40;4.32;;;1.48;;
56399;SDS011;42298;53.638;9.876;2023-04-26T12:23:07;7.50;;;1.85;;
56399;SDS011;42298;53.638;9.876;2023-04-26T12:25:34;6.88;;;1.65;;
56399;SDS011;42298;53.638;9.876;2023-04-26T12:28:02;5.97;;;1.55;;
56399;SDS011;42298;53.638;9.876;2023-04-26T12:30:29;7.60;;;1.90;;
56399;SDS011;42298;53.638;9.876;2023-04-26T12:32:55;6.65;;;1.48;;
56399;SDS011;42298;53.638;9.876;2023-04-26T12:35:22;5.97;;;1.80;;
56399;SDS011;42298;53.638;9.876;2023-04-26T12:37:48;7.50;;;1.73;;
56399;SDS011;42298;53.638;9.876;2023-04-26T12:40:17;5.10;;;1.55;;
56399;SDS011;42298;53.638;9.876;2023-04-26T12:42:44;4.25;;;1.40;;
56399;SDS011;42298;53.638;9.876;2023-04-26T12:45:13;5.85;;;1.88;;
56399;SDS011;42298;53.638;9.876;2023-04-26T12:47:38;5.55;;;1.90;;
56399;SDS011;42298;53.638;9.876;2023-04-26T12:50:04;7.53;;;2.00;;
56399;SDS011;42298;53.638;9.876;2023-04-26T12:52:30;7.45;;;2.08;;
56399;SDS011;42298;53.638;9.876;2023-04-26T12:54:56;8.48;;;1.90;;
56399;SDS011;42298;53.638;9.876;2023-04-26T12:57:21;7.38;;;2.00;;
56399;SDS011;42298;53.638;9.876;2023-04-26T12:59:47;6.05;;;1.85;;
56399;SDS011;42298;53.638;9.876;2023-04-26T13:02:12;5.90;;;2.05;;
56399;SDS011;42298;53.638;9.876;2023-04-26T13:04:37;6.82;;;1.90;;
56399;SDS011;42298;53.638;9.876;2023-04-26T13:07:03;5.00;;;1.80;;
56399;SDS011;42298;53.638;9.876;2023-04-26T13:09:29;7.35;;;2.08;;
56399;SDS011;42298;53.638;9.876;2023-04-26T13:11:54;7.90;;;1.92;;
56399;SDS011;42298;53.638;9.876;2023-04-26T13:14:19;6.97;;;1.60;;
56399;SDS011;42298;53.638;9.876;2023-04-26T13:16:47;8.05;;;1.98;;
56399;SDS011;42298;53.638;9.876;2023-04-26T13:19:12;5.90;;;1.98;;
56399;SDS011;42298;53.638;9.876;2023-04-26T13:21:38;5.75;;;1.83;;
56399;SDS011;42298;53.638;9.876;2023-04-26T13:24:04;6.75;;;2.00;;
56399;SDS011;42298;53.638;9.876;2023-04-26T13:26:30;5.03;;;1.90;;
56399;SDS011;42298;53.638;9.876;2023-04-26T13:28:55;6.70;;;1.73;;
56399;SDS011;42298;53.638;9.876;2023-04-26T13:31:21;6.22;;;2.10;;
56399;SDS011;42298;53.638;9.876;2023-04-26T13:33:47;6.13;;;1.67;;
56399;SDS011;42298;53.638;9.876;2023-04-26T13:36:13;4.32;;;1.60;;
56399;SDS011;42298;53.638;9.876;2023-04-26T13:38:40;4.47;;;1.77;;
56399;SDS011;42298;53.638;9.876;2023-04-26T13:41:06;5.78;;;1.80;;
56399;SDS011;42298;53.638;9.876;2023-04-26T13:43:33;6.80;;;1.80;;
56399;SDS011;42298;53.638;9.876;2023-04-26T13:45:58;8.40;;;2.00;;
56399;SDS011;42298;53.638;9.876;2023-04-26T13:48:25;7.13;;;1.85;;
56399;SDS011;42298;53.638;9.876;2023-04-26T13:50:52;4.95;;;1.65;;
56399;SDS011;42298;53.638;9.876;2023-04-26T13:53:20;7.43;;;1.88;;
56399;SDS011;42298;53.638;9.876;2023-04-26T13:55:47;4.45;;;1.60;;
56399;SDS011;42298;53.638;9.876;2023-04-26T13:58:12;4.47;;;1.85;;
56399;SDS011;42298;53.638;9.876;2023-04-26T14:00:44;6.30;;;1.75;;
56399;SDS011;42298;53.638;9.876;2023-04-26T14:03:09;6.15;;;1.98;;
56399;SDS011;42298;53.638;9.876;2023-04-26T14:05:35;5.38;;;1.80;;
56399;SDS011;42298;53.638;9.876;2023-04-26T14:08:01;5.68;;;1.67;;
56399;SDS011;42298;53.638;9.876;2023-04-26T14:10:26;7.55;;;1.80;;
56399;SDS011;42298;53.638;9.876;2023-04-26T14:12:52;5.15;;;1.80;;
56399;SDS011;42298;53.638;9.876;2023-04-26T14:15:19;6.35;;;1.90;;
56399;SDS011;42298;53.638;9.876;2023-04-26T14:17:45;6.38;;;1.95;;
56399;SDS011;42298;53.638;9.876;2023-04-26T14:20:11;4.32;;;1.60;;
56399;SDS011;42298;53.638;9.876;2023-04-26T14:22:36;5.20;;;2.03;;
56399;SDS011;42298;53.638;9.876;2023-04-26T14:28:09;6.90;;;1.90;;
56399;SDS011;42298;53.638;9.876;2023-04-26T14:30:40;8.32;;;2.22;;
56399;SDS011;42298;53.638;9.876;2023-04-26T14:33:05;8.40;;;2.20;;
56399;SDS011;42298;53.638;9.876;2023-04-26T14:35:30;4.50;;;1.70;;
56399;SDS011;42298;53.638;9.876;2023-04-26T14:37:56;5.13;;;1.80;;
56399;SDS011;42298;53.638;9.876;2023-04-26T14:40:21;5.90;;;1.85;;
56399;SDS011;42298;53.638;9.876;2023-04-26T14:42:47;7.20;;;1.95;;
56399;SDS011;42298;53.638;9.876;2023-04-26T14:45:13;6.03;;;2.17;;
56399;SDS011;42298;53.638;9.876;2023-04-26T14:47:38;7.18;;;2.10;;
56399;SDS011;42298;53.638;9.876;2023-04-26T14:50:04;6.80;;;1.90;;
56399;SDS011;42298;53.638;9.876;2023-04-26T14:52:34;7.00;;;2.17;;
56399;SDS011;42298;53.638;9.876;2023-04-26T14:55:00;5.82;;;1.70;;
56399;SDS011;42298;53.638;9.876;2023-04-26T14:57:26;8.68;;;1.95;;